createdAt,value
2019-05-07T00:01:34.141Z,37.73
2019-05-07T00:04:07.407Z,35.07
2019-05-07T00:06:40.539Z,35.43
2019-05-07T00:09:14.481Z,31.50
2019-05-07T00:11:47.116Z,33.63
2019-05-07T00:14:19.803Z,32.43
2019-05-07T00:16:53.473Z,34.37
2019-05-07T00:19:27.314Z,35.90
2019-05-07T00:22:02.210Z,30.20
2019-05-07T00:24:35.295Z,32.70
2019-05-07T00:27:08.805Z,33.43
2019-05-07T00:29:42.930Z,27.40
2019-05-07T00:32:15.698Z,27.87
2019-05-07T00:34:57.241Z,26.30
2019-05-07T00:37:39.274Z,27.17
2019-05-07T00:40:33.528Z,29.57
2019-05-07T00:43:16.929Z,28.47
2019-05-07T00:45:56.812Z,27.67
2019-05-07T00:48:30.025Z,35.08
2019-05-07T00:51:08.088Z,34.58
2019-05-07T00:53:42.388Z,31.17
2019-05-07T00:56:15.137Z,31.50
2019-05-07T00:58:47.732Z,30.23
2019-05-07T01:01:22.520Z,31.67
2019-05-07T01:03:56.156Z,36.97
2019-05-07T01:06:28.764Z,35.30
2019-05-07T01:09:03.137Z,40.57
2019-05-07T01:11:36.310Z,36.73
2019-05-07T01:14:08.974Z,35.53
2019-05-07T01:16:42.198Z,36.73
2019-05-07T01:19:14.927Z,34.23
2019-05-07T01:21:49.264Z,38.67
2019-05-07T01:24:23.266Z,38.77
2019-05-07T01:26:56.205Z,31.73
2019-05-07T01:29:28.912Z,30.60
2019-05-07T01:32:15.369Z,37.77
2019-05-07T01:34:54.595Z,34.50
2019-05-07T01:37:27.311Z,40.13
2019-05-07T01:40:04.770Z,37.03
2019-05-07T01:42:37.969Z,34.03
2019-05-07T01:45:13.608Z,37.85
2019-05-07T01:47:46.213Z,37.80
2019-05-07T01:50:19.782Z,40.30
2019-05-07T01:52:52.431Z,36.53
2019-05-07T01:55:25.014Z,35.97
2019-05-07T01:57:58.422Z,39.70
2019-05-07T02:00:32.641Z,36.13
2019-05-07T02:03:15.752Z,40.67
2019-05-07T02:05:57.243Z,37.07
2019-05-07T02:08:45.327Z,38.07
2019-05-07T02:11:21.970Z,36.47
2019-05-07T02:13:54.577Z,39.37
2019-05-07T02:16:27.267Z,46.37
2019-05-07T02:19:01.984Z,42.83
2019-05-07T02:21:35.219Z,41.27
2019-05-07T02:24:07.763Z,48.10
2019-05-07T02:26:42.523Z,41.60
2019-05-07T02:29:15.351Z,43.20
2019-05-07T02:31:47.902Z,40.73
2019-05-07T02:34:23.360Z,42.10
2019-05-07T02:36:56.425Z,47.87
2019-05-07T02:39:43.998Z,56.28
2019-05-07T02:42:17.090Z,52.90
2019-05-07T02:44:55.350Z,54.70
2019-05-07T02:47:28.939Z,46.80
2019-05-07T02:50:09.299Z,47.37
2019-05-07T02:52:55.693Z,43.17
2019-05-07T02:55:35.189Z,36.57
2019-05-07T02:58:08.518Z,40.00
2019-05-07T03:00:43.473Z,38.10
2019-05-07T03:03:16.617Z,40.77
2019-05-07T03:05:49.471Z,43.13
2019-05-07T03:08:26.573Z,40.50
2019-05-07T03:11:03.046Z,39.77
2019-05-07T03:13:36.652Z,38.17
2019-05-07T03:16:09.425Z,42.50
2019-05-07T03:18:43.855Z,44.33
2019-05-07T03:21:47.669Z,46.20
2019-05-07T03:24:34.460Z,41.67
2019-05-07T03:27:07.173Z,37.50
2019-05-07T03:29:45.703Z,35.43
2019-05-07T03:32:37.816Z,37.20
2019-05-07T03:35:19.133Z,43.40
2019-05-07T03:37:54.652Z,50.90
2019-05-07T03:40:32.656Z,55.73
2019-05-07T03:43:08.774Z,55.97
2019-05-07T03:46:03.600Z,57.42
2019-05-07T03:48:47.953Z,62.90
2019-05-07T03:51:23.543Z,67.90
2019-05-07T03:53:57.637Z,74.87
2019-05-07T03:56:33.031Z,67.25
2019-05-07T03:59:05.807Z,64.70
2019-05-07T04:01:39.216Z,65.57
2019-05-07T04:04:13.207Z,69.27
2019-05-07T04:06:48.190Z,59.53
2019-05-07T04:09:23.902Z,62.13
2019-05-07T04:11:57.794Z,66.77
2019-05-07T04:14:34.552Z,62.17
2019-05-07T04:17:22.279Z,52.63
2019-05-07T04:19:58.529Z,51.28
2019-05-07T04:22:34.275Z,47.27
2019-05-07T04:25:30.091Z,54.63
2019-05-07T04:28:23.575Z,50.47
2019-05-07T04:30:58.913Z,56.67
2019-05-07T04:33:37.108Z,59.53
2019-05-07T04:36:16.085Z,55.33
2019-05-07T04:38:49.053Z,54.67
2019-05-07T04:41:23.343Z,52.30
2019-05-07T04:43:56.234Z,57.37
2019-05-07T04:46:28.972Z,65.53
2019-05-07T04:49:03.695Z,58.70
2019-05-07T04:52:03.663Z,66.77
2019-05-07T04:54:37.382Z,62.43
2019-05-07T04:57:25.299Z,66.80
2019-05-07T05:00:02.892Z,57.17
2019-05-07T05:02:53.073Z,52.00
2019-05-07T05:05:26.278Z,54.20
2019-05-07T05:07:58.990Z,51.92
2019-05-07T05:10:33.709Z,49.67
2019-05-07T05:13:06.561Z,44.83
2019-05-07T05:15:39.857Z,47.60
2019-05-07T05:18:12.856Z,44.37
2019-05-07T05:21:07.241Z,51.00
2019-05-07T05:23:46.906Z,48.47
2019-05-07T05:26:21.865Z,46.07
2019-05-07T05:28:55.548Z,45.67
2019-05-07T05:31:28.784Z,42.10
2019-05-07T05:34:03.716Z,40.90
2019-05-07T05:36:37.470Z,45.17
2019-05-07T05:39:13.134Z,42.17
2019-05-07T05:41:56.848Z,45.83
2019-05-07T05:44:32.978Z,44.05
2019-05-07T05:47:06.369Z,48.92
2019-05-07T05:49:39.015Z,40.93
2019-05-07T05:52:22.209Z,36.67
2019-05-07T05:55:02.533Z,34.20
2019-05-07T05:57:59.311Z,35.93
2019-05-07T06:00:37.407Z,39.23
2019-05-07T06:03:28.428Z,37.43
2019-05-07T06:06:12.771Z,38.17
2019-05-07T06:08:58.569Z,48.03
2019-05-07T06:11:54.290Z,38.43
2019-05-07T06:14:39.773Z,35.27
2019-05-07T06:17:34.837Z,30.83
2019-05-07T06:20:14.279Z,30.70
2019-05-07T06:23:06.457Z,27.53
2019-05-07T06:25:42.803Z,29.43
2019-05-07T06:28:16.221Z,30.95
2019-05-07T06:30:49.821Z,24.23
2019-05-07T06:33:23.440Z,27.80
2019-05-07T06:35:58.033Z,25.07
2019-05-07T06:38:38.103Z,25.80
2019-05-07T06:42:24.422Z,24.13
2019-05-07T06:45:05.308Z,23.40
2019-05-07T06:47:38.001Z,24.40
2019-05-07T06:50:12.498Z,20.63
2019-05-07T06:52:48.335Z,23.67
2019-05-07T06:55:22.829Z,20.60
2019-05-07T06:57:55.741Z,19.87
2019-05-07T07:00:34.341Z,20.90
2019-05-07T07:03:16.158Z,18.40
2019-05-07T07:05:55.061Z,20.40
2019-05-07T07:08:33.101Z,22.17
2019-05-07T07:11:16.421Z,20.93
2019-05-07T07:13:51.879Z,19.50
2019-05-07T07:16:24.532Z,19.57
2019-05-07T07:18:57.371Z,20.10
2019-05-07T07:21:30.080Z,18.60
2019-05-07T07:24:03.175Z,13.93
2019-05-07T07:26:36.729Z,18.47
2019-05-07T07:29:12.694Z,18.67
2019-05-07T07:31:52.647Z,19.83
2019-05-07T07:34:27.374Z,20.70
2019-05-07T07:37:15.202Z,19.33
2019-05-07T07:40:13.540Z,17.17
2019-05-07T07:42:46.571Z,16.00
2019-05-07T07:45:23.137Z,15.80
2019-05-07T07:47:55.656Z,16.77
2019-05-07T07:50:28.332Z,16.80
2019-05-07T07:53:02.600Z,17.37
2019-05-07T07:55:42.876Z,15.23
2019-05-07T07:58:34.245Z,20.43
2019-05-07T08:01:13.514Z,18.53
2019-05-07T08:03:46.266Z,19.73
2019-05-07T08:06:19.072Z,17.80
2019-05-07T08:08:53.055Z,19.17
2019-05-07T08:11:31.878Z,18.47
2019-05-07T08:14:06.791Z,15.30
2019-05-07T08:16:43.179Z,14.63
2019-05-07T08:19:21.862Z,15.23
2019-05-07T08:21:55.930Z,15.70
2019-05-07T08:24:28.601Z,14.55
2019-05-07T08:27:02.647Z,15.30
2019-05-07T08:29:36.571Z,14.00
2019-05-07T08:32:22.743Z,14.40
2019-05-07T08:35:02.997Z,16.00
2019-05-07T08:37:36.495Z,16.37
2019-05-07T08:40:09.758Z,16.17
2019-05-07T08:42:42.437Z,15.70
2019-05-07T08:45:24.973Z,16.37
2019-05-07T08:48:02.069Z,15.00
2019-05-07T08:50:35.226Z,12.27
2019-05-07T08:53:13.048Z,13.77
2019-05-07T08:55:46.012Z,15.23
2019-05-07T08:58:19.642Z,16.92
2019-05-07T09:00:53.897Z,14.97
2019-05-07T09:03:33.497Z,17.40
2019-05-07T09:06:07.181Z,16.43
2019-05-07T09:08:39.921Z,16.90
2019-05-07T09:11:13.308Z,15.30
2019-05-07T09:13:49.971Z,14.80
2019-05-07T09:16:24.279Z,13.70
2019-05-07T09:18:57.029Z,14.85
2019-05-07T09:21:29.626Z,15.13
2019-05-07T09:24:02.531Z,16.80
2019-05-07T09:26:45.538Z,15.17
2019-05-07T09:29:33.943Z,15.80
2019-05-07T09:32:26.408Z,14.33
2019-05-07T09:35:02.147Z,18.97
2019-05-07T09:37:35.101Z,19.03
2019-05-07T09:40:08.187Z,20.17
2019-05-07T09:42:42.989Z,21.47
2019-05-07T09:45:22.483Z,20.00
2019-05-07T09:47:55.404Z,17.03
2019-05-07T09:50:28.525Z,20.87
2019-05-07T09:53:04.316Z,20.30
2019-05-07T09:55:42.371Z,17.60
2019-05-07T09:58:15.587Z,18.97
2019-05-07T10:00:48.507Z,22.17
2019-05-07T10:03:22.775Z,20.87
2019-05-07T10:05:56.355Z,21.80
2019-05-07T10:08:31.813Z,21.60
2019-05-07T10:11:08.451Z,20.90
2019-05-07T10:13:52.490Z,22.73
2019-05-07T10:16:38.736Z,21.57
2019-05-07T10:19:11.443Z,16.57
2019-05-07T10:21:44.164Z,18.00
2019-05-07T10:24:18.105Z,15.40
2019-05-07T10:26:53.528Z,16.02
2019-05-07T10:29:27.558Z,15.17
2019-05-07T10:32:02.179Z,15.50
2019-05-07T10:34:37.410Z,16.13
2019-05-07T10:37:12.151Z,16.70
2019-05-07T10:39:45.319Z,15.27
2019-05-07T10:42:22.726Z,13.77
2019-05-07T10:45:13.125Z,17.87
2019-05-07T10:48:03.814Z,15.53
2019-05-07T10:50:39.354Z,16.03
2019-05-07T10:53:12.533Z,15.27
2019-05-07T10:55:46.418Z,15.60
2019-05-07T10:58:20.089Z,18.97
2019-05-07T11:01:03.017Z,18.77
2019-05-07T11:03:36.479Z,17.50
2019-05-07T11:06:11.847Z,16.03
2019-05-07T11:08:45.087Z,18.00
2019-05-07T11:11:17.839Z,18.57
2019-05-07T11:13:57.449Z,21.00
2019-05-07T11:16:39.254Z,19.10
2019-05-07T11:19:12.798Z,20.50
2019-05-07T11:21:46.548Z,19.53
2019-05-07T11:24:26.289Z,19.60
2019-05-07T11:26:59.686Z,22.30
2019-05-07T11:29:36.655Z,20.47
2019-05-07T11:32:15.739Z,19.90
2019-05-07T11:34:49.737Z,18.37
2019-05-07T11:37:22.627Z,18.13
2019-05-07T11:39:57.026Z,18.87
2019-05-07T11:42:38.002Z,20.37
2019-05-07T11:45:22.748Z,18.00
2019-05-07T11:48:01.854Z,18.20
2019-05-07T11:51:00.496Z,19.57
2019-05-07T11:54:01.964Z,18.07
2019-05-07T11:56:35.100Z,18.65
2019-05-07T11:59:08.253Z,18.00
2019-05-07T12:01:48.362Z,17.50
2019-05-07T12:04:22.346Z,19.20
2019-05-07T12:06:55.854Z,21.83
2019-05-07T12:09:29.254Z,20.90
2019-05-07T12:12:02.547Z,16.77
2019-05-07T12:14:38.335Z,18.98
2019-05-07T12:17:11.974Z,18.17
2019-05-07T12:19:46.026Z,19.73
2019-05-07T12:22:25.176Z,18.23
2019-05-07T12:24:57.917Z,19.07
2019-05-07T12:27:32.349Z,16.93
2019-05-07T12:30:12.047Z,16.15
2019-05-07T12:32:56.281Z,14.50
2019-05-07T12:35:28.982Z,15.40
2019-05-07T12:38:02.160Z,15.93
2019-05-07T12:40:35.720Z,15.43
2019-05-07T12:43:10.623Z,15.10
2019-05-07T12:45:44.346Z,16.07
2019-05-07T12:48:16.953Z,14.37
2019-05-07T12:50:52.620Z,16.80
2019-05-07T12:53:35.428Z,11.07
2019-05-07T12:56:11.118Z,17.85
2019-05-07T12:58:47.759Z,12.27
2019-05-07T13:01:45.823Z,13.80
2019-05-07T13:04:22.492Z,12.88
2019-05-07T13:07:13.105Z,13.50
2019-05-07T13:09:45.775Z,12.77
2019-05-07T13:12:21.613Z,12.77
2019-05-07T13:14:55.422Z,10.73
2019-05-07T13:17:28.222Z,13.33
2019-05-07T13:20:01.887Z,12.63
2019-05-07T13:22:35.710Z,12.67
2019-05-07T13:25:11.886Z,10.67
2019-05-07T13:27:45.715Z,15.63
2019-05-07T13:30:22.247Z,16.50
2019-05-07T13:33:02.048Z,12.83
2019-05-07T13:35:37.414Z,15.23
2019-05-07T13:38:21.074Z,15.73
2019-05-07T13:41:02.426Z,14.60
2019-05-07T13:44:02.916Z,17.80
2019-05-07T13:46:45.137Z,17.80
2019-05-07T13:49:18.858Z,16.30
2019-05-07T13:52:03.269Z,14.93
2019-05-07T13:54:41.943Z,14.70
2019-05-07T13:57:15.857Z,14.20
2019-05-07T13:59:49.931Z,12.53
2019-05-07T14:02:33.551Z,12.68
2019-05-07T14:05:06.967Z,10.60
2019-05-07T14:08:12.027Z,12.37
2019-05-07T14:10:54.788Z,12.88
2019-05-07T14:13:28.254Z,12.27
2019-05-07T14:16:11.881Z,13.50
2019-05-07T14:18:46.025Z,13.50
2019-05-07T14:21:22.557Z,13.05
2019-05-07T14:24:04.321Z,14.53
2019-05-07T14:26:37.336Z,10.90
2019-05-07T14:29:12.962Z,12.27
2019-05-07T14:31:52.418Z,10.00
2019-05-07T14:34:34.905Z,13.03
2019-05-07T14:37:19.210Z,10.93
2019-05-07T14:39:55.993Z,10.50
2019-05-07T14:42:41.835Z,9.73
2019-05-07T14:45:18.356Z,9.97
2019-05-07T14:47:52.318Z,9.03
2019-05-07T14:50:28.459Z,13.07
2019-05-07T14:53:06.528Z,10.45
2019-05-07T14:55:46.018Z,8.63
2019-05-07T14:58:20.968Z,8.67
2019-05-07T15:00:55.837Z,11.00
2019-05-07T15:03:32.020Z,11.37
2019-05-07T15:06:05.560Z,10.00
2019-05-07T15:08:42.969Z,8.70
2019-05-07T15:11:18.474Z,9.13
2019-05-07T15:14:05.293Z,11.80
2019-05-07T15:16:38.455Z,12.00
2019-05-07T15:19:14.730Z,10.93
2019-05-07T15:21:51.743Z,12.53
2019-05-07T15:24:26.897Z,10.68
2019-05-07T15:27:03.535Z,12.30
2019-05-07T15:29:36.303Z,10.70
2019-05-07T15:32:12.608Z,11.00
2019-05-07T15:34:46.706Z,10.10
2019-05-07T15:37:20.924Z,13.03
2019-05-07T15:39:57.422Z,8.90
2019-05-07T15:42:33.399Z,9.98
2019-05-07T15:45:18.239Z,10.07
2019-05-07T15:47:56.512Z,10.33
2019-05-07T15:50:32.052Z,11.87
2019-05-07T15:53:15.798Z,10.30
2019-05-07T15:55:48.633Z,12.23
2019-05-07T15:58:22.821Z,9.13
2019-05-07T16:01:02.167Z,10.30
2019-05-07T16:03:46.242Z,9.67
2019-05-07T16:06:25.057Z,9.40
2019-05-07T16:09:07.512Z,11.33
2019-05-07T16:11:50.678Z,9.47
2019-05-07T16:14:28.148Z,12.30
2019-05-07T16:17:18.173Z,8.70
2019-05-07T16:19:56.068Z,9.00
2019-05-07T16:22:39.663Z,9.10
2019-05-07T16:25:22.357Z,11.00
2019-05-07T16:28:04.431Z,11.37
2019-05-07T16:30:43.189Z,11.13
2019-05-07T16:33:22.282Z,10.03
2019-05-07T16:36:15.447Z,11.05
2019-05-07T16:38:53.834Z,11.63
2019-05-07T16:41:26.604Z,11.12
2019-05-07T16:44:02.722Z,10.47
2019-05-07T16:46:36.531Z,11.23
2019-05-07T16:49:13.577Z,9.00
2019-05-07T16:52:02.950Z,11.63
2019-05-07T16:54:38.462Z,11.50
2019-05-07T16:57:33.369Z,9.53
2019-05-07T17:00:17.348Z,11.83
2019-05-07T17:02:57.112Z,9.68
2019-05-07T17:05:32.121Z,9.00
2019-05-07T17:08:12.950Z,9.57
2019-05-07T17:10:54.757Z,10.80
2019-05-07T17:13:35.327Z,8.93
2019-05-07T17:16:12.640Z,10.07
2019-05-07T17:18:55.284Z,10.10
2019-05-07T17:21:32.410Z,9.50
2019-05-07T17:24:12.901Z,11.53
2019-05-07T17:26:46.128Z,9.63
2019-05-07T17:29:22.694Z,9.53
2019-05-07T17:31:57.155Z,10.90
2019-05-07T17:34:38.214Z,10.50
2019-05-07T17:37:12.644Z,12.13
2019-05-07T17:39:49.852Z,9.33
2019-05-07T17:42:25.349Z,10.77
2019-05-07T17:44:59.499Z,10.30
2019-05-07T17:47:36.662Z,9.63
2019-05-07T17:50:14.778Z,11.87
2019-05-07T17:52:53.328Z,9.63
2019-05-07T17:55:32.966Z,11.87
2019-05-07T17:58:07.870Z,11.93
2019-05-07T18:00:45.315Z,21.10
2019-05-07T18:03:25.249Z,11.63
2019-05-07T18:05:58.032Z,13.60
2019-05-07T18:08:33.321Z,11.13
2019-05-07T18:11:18.534Z,11.13
2019-05-07T18:13:54.259Z,10.50
2019-05-07T18:16:36.775Z,10.38
2019-05-07T18:19:13.531Z,10.47
2019-05-07T18:21:48.971Z,13.13
2019-05-07T18:24:25.936Z,14.33
2019-05-07T18:27:03.585Z,11.27
2019-05-07T18:29:37.958Z,11.00
2019-05-07T18:32:12.932Z,10.50
2019-05-07T18:34:45.875Z,9.43
2019-05-07T18:37:22.875Z,11.20
2019-05-07T18:40:02.526Z,8.83
2019-05-07T18:42:41.743Z,12.43
2019-05-07T18:45:17.031Z,11.67
2019-05-07T18:47:51.770Z,9.27
2019-05-07T18:50:24.616Z,9.63
2019-05-07T18:52:59.129Z,7.80
2019-05-07T18:55:33.699Z,10.80
2019-05-07T18:58:09.379Z,11.60
2019-05-07T19:00:48.524Z,10.80
2019-05-07T19:03:22.075Z,11.50
2019-05-07T19:05:56.055Z,12.27
2019-05-07T19:08:32.678Z,8.77
2019-05-07T19:11:09.329Z,9.23
2019-05-07T19:13:44.004Z,11.37
2019-05-07T19:16:19.935Z,9.70
2019-05-07T19:18:53.984Z,10.90
2019-05-07T19:21:28.250Z,10.40
2019-05-07T19:24:02.402Z,9.67
2019-05-07T19:26:38.225Z,8.93
2019-05-07T19:29:12.437Z,11.60
2019-05-07T19:31:45.477Z,9.83
2019-05-07T19:34:21.815Z,11.07
2019-05-07T19:36:57.534Z,12.57
2019-05-07T19:39:32.496Z,9.57
2019-05-07T19:42:06.579Z,10.67
2019-05-07T19:44:42.336Z,10.17
2019-05-07T19:47:18.119Z,10.83
2019-05-07T19:49:53.904Z,12.40
2019-05-07T19:52:28.705Z,9.90
2019-05-07T19:55:09.316Z,9.57
2019-05-07T19:57:52.390Z,8.83
2019-05-07T20:00:29.039Z,8.50
2019-05-07T20:03:06.657Z,11.13
2019-05-07T20:05:42.194Z,9.00
2019-05-07T20:08:17.069Z,9.87
2019-05-07T20:10:59.514Z,9.13
2019-05-07T20:13:40.891Z,7.57
2019-05-07T20:16:25.080Z,11.40
2019-05-07T20:19:05.800Z,9.53
2019-05-07T20:21:38.421Z,9.80
2019-05-07T20:24:12.631Z,10.03
2019-05-07T20:26:45.825Z,10.77
2019-05-07T20:29:22.724Z,9.97
2019-05-07T20:31:57.251Z,9.93
2019-05-07T20:34:32.930Z,12.40
2019-05-07T20:37:07.591Z,10.80
2019-05-07T20:39:44.774Z,11.12
2019-05-07T20:42:19.736Z,8.70
2019-05-07T20:44:55.325Z,15.13
2019-05-07T20:47:29.513Z,10.40
2019-05-07T20:50:02.138Z,10.77
2019-05-07T20:52:47.326Z,9.47
2019-05-07T20:55:34.111Z,10.33
2019-05-07T20:58:07.619Z,8.37
2019-05-07T21:00:45.544Z,11.57
2019-05-07T21:03:19.659Z,9.60
2019-05-07T21:05:54.940Z,10.45
2019-05-07T21:08:27.544Z,11.20
2019-05-07T21:11:02.501Z,10.20
2019-05-07T21:13:36.450Z,9.60
2019-05-07T21:16:12.609Z,9.60
2019-05-07T21:18:47.433Z,11.53
2019-05-07T21:21:21.820Z,10.33
2019-05-07T21:23:56.243Z,8.80
2019-05-07T21:26:32.494Z,9.00
2019-05-07T21:29:06.647Z,8.13
2019-05-07T21:31:43.244Z,7.97
2019-05-07T21:34:17.490Z,9.53
2019-05-07T21:36:53.892Z,9.10
2019-05-07T21:39:26.636Z,10.70
2019-05-07T21:42:01.550Z,10.00
2019-05-07T21:44:34.177Z,9.63
2019-05-07T21:47:07.721Z,7.83
2019-05-07T21:49:43.031Z,8.60
2019-05-07T21:52:18.840Z,9.37
2019-05-07T21:55:04.263Z,7.00
2019-05-07T21:57:49.601Z,8.97
2019-05-07T22:00:48.801Z,8.57
2019-05-07T22:03:34.981Z,8.07
2019-05-07T22:06:15.832Z,8.80
2019-05-07T22:08:49.267Z,9.30
2019-05-07T22:11:23.024Z,8.43
2019-05-07T22:13:57.136Z,8.70
2019-05-07T22:16:32.884Z,7.03
2019-05-07T22:19:07.613Z,10.40
2019-05-07T22:21:42.947Z,6.80
2019-05-07T22:24:16.647Z,7.80
2019-05-07T22:26:50.643Z,10.47
2019-05-07T22:29:24.289Z,8.13
2019-05-07T22:32:18.512Z,8.80
2019-05-07T22:34:56.754Z,8.67
2019-05-07T22:37:29.394Z,8.85
2019-05-07T22:40:02.796Z,7.60
2019-05-07T22:42:38.530Z,7.37
2019-05-07T22:45:14.763Z,7.30
2019-05-07T22:47:47.253Z,7.60
2019-05-07T22:50:22.679Z,6.97
2019-05-07T22:52:55.343Z,7.00
2019-05-07T22:55:28.953Z,10.20
2019-05-07T22:58:17.981Z,7.37
2019-05-07T23:00:57.087Z,6.90
2019-05-07T23:03:32.135Z,7.47
2019-05-07T23:06:06.410Z,6.43
2019-05-07T23:08:42.370Z,8.53
2019-05-07T23:11:16.738Z,7.00
2019-05-07T23:13:54.396Z,7.23
2019-05-07T23:16:29.949Z,6.93
2019-05-07T23:19:02.870Z,8.07
2019-05-07T23:21:35.455Z,7.33
2019-05-07T23:24:08.051Z,6.87
2019-05-07T23:26:50.273Z,7.23
2019-05-07T23:29:24.660Z,6.17
2019-05-07T23:31:58.093Z,6.70
2019-05-07T23:34:32.738Z,7.07
2019-05-07T23:37:05.315Z,5.77
2019-05-07T23:39:42.535Z,7.07
2019-05-07T23:42:20.509Z,6.30
2019-05-07T23:44:54.622Z,6.45
2019-05-07T23:47:31.623Z,9.87
2019-05-07T23:50:09.095Z,7.20
2019-05-07T23:52:44.163Z,6.53
2019-05-07T23:55:17.564Z,6.23
2019-05-07T23:57:52.376Z,6.47
